Time;durP1;ratioP1;P1;durP2;ratioP2;P2;SDS_P1;SDS_P2;PMS_P1;PMS_P2;Temp;Humidity;BMP_temperature;BMP_pressure;BME280_temperature;BME280_humidity;BME280_pressure;Samples;Min_cycle;Max_cycle;Signal;HPM_P1;HPM_P2
2022/12/01 00:00:26;;;;;;;;;;;;;;;7.18;68.08;101364.03;4193412;28;20067;-74
2022/12/01 00:02:29;;;;;;;23.45;12.65;;;;;;;7.17;68.51;101354.53;4189012;28;19967;-74
2022/12/01 00:04:32;;;;;;;24.75;15.35;;;;;;;7.21;68.57;101358.97;4184819;28;20033;-74
2022/12/01 00:06:36;;;;;;;23.70;15.88;;;;;;;7.28;68.28;101355.84;4182216;28;20446;-74
2022/12/01 00:08:39;;;;;;;21.30;14.40;;;;;;;7.19;68.30;101358.03;4181477;28;20139;-74
2022/12/01 00:10:41;;;;;;;24.70;15.15;;;;;;;7.24;68.50;101353.97;4181000;28;20491;-74
2022/12/01 00:12:44;;;;;;;22.60;13.98;;;;;;;7.27;68.34;101358.34;4188549;28;20139;-74
2022/12/01 00:14:53;;;;;;;21.77;13.70;;;;;;;7.25;68.61;101357.44;4193748;28;20075;-74
2022/12/01 00:16:56;;;;;;;23.48;14.20;;;;;;;7.22;68.27;101352.13;4197502;28;20049;-73
2022/12/01 00:18:59;;;;;;;23.02;13.68;;;;;;;7.20;68.57;101349.47;4195295;28;20040;-73
2022/12/01 00:21:02;;;;;;;22.58;14.32;;;;;;;7.21;68.85;101346.03;4180468;28;20445;-73
2022/12/01 00:23:05;;;;;;;24.42;15.20;;;;;;;7.25;68.82;101347.94;4195784;28;20166;-73
2022/12/01 00:25:08;;;;;;;23.67;15.27;;;;;;;7.28;68.34;101350.66;4195991;28;20106;-73
2022/12/01 00:27:11;;;;;;;23.90;16.45;;;;;;;7.31;68.08;101350.78;4179589;28;20092;-73
2022/12/01 00:29:13;;;;;;;20.08;13.07;;;;;;;7.30;68.11;101350.72;4196194;28;20457;-73
2022/12/01 00:31:18;;;;;;;22.05;13.30;;;;;;;7.28;68.19;101357.56;4193105;28;20096;-73
2022/12/01 00:33:21;;;;;;;22.95;14.88;;;;;;;7.29;68.67;101360.19;4192740;28;20064;-74
2022/12/01 00:35:23;;;;;;;22.40;13.82;;;;;;;7.29;68.20;101360.19;4196186;28;20036;-73
2022/12/01 00:37:26;;;;;;;24.23;16.00;;;;;;;7.31;68.88;101349.91;4197270;28;20044;-74
2022/12/01 00:39:29;;;;;;;24.70;14.05;;;;;;;7.31;68.91;101360.25;4196899;28;20044;-74
2022/12/01 00:41:32;;;;;;;21.50;13.07;;;;;;;7.27;68.84;101354.09;4191514;28;20120;-74
2022/12/01 00:43:35;;;;;;;21.85;14.00;;;;;;;7.33;68.20;101354.34;4189956;28;20499;-74
2022/12/01 00:45:38;;;;;;;113.35;58.78;;;;;;;7.22;67.61;101365.94;4196165;28;20548;-73
2022/12/01 00:47:42;;;;;;;32.65;19.27;;;;;;;7.31;67.74;101357.69;4196950;28;20032;-73
2022/12/01 00:49:45;;;;;;;21.10;13.30;;;;;;;7.22;67.90;101363.34;4188325;28;20055;-73
2022/12/01 00:51:49;;;;;;;25.70;15.73;;;;;;;7.19;68.13;101364.94;4196427;28;20037;-74
2022/12/01 00:53:52;;;;;;;24.50;15.23;;;;;;;7.20;68.42;101367.56;4182557;28;20444;-73
2022/12/01 00:55:55;;;;;;;21.27;13.98;;;;;;;7.20;68.42;101367.56;4187255;28;20052;-73
2022/12/01 00:57:57;;;;;;;24.73;14.85;;;;;;;7.24;68.51;101368.56;4182669;28;20127;-73
2022/12/01 01:00:00;;;;;;;24.48;15.68;;;;;;;7.25;68.73;101368.63;4192295;28;20103;-73
2022/12/01 01:02:04;;;;;;;24.50;14.82;;;;;;;7.28;68.24;101368.75;4196217;28;20036;-74
2022/12/01 01:04:08;;;;;;;21.35;13.90;;;;;;;7.29;68.82;101373.13;4187824;28;20394;-73
2022/12/01 01:06:12;;;;;;;22.98;15.00;;;;;;;7.30;68.23;101367.16;4193426;28;20618;-73
2022/12/01 01:08:15;;;;;;;23.92;15.68;;;;;;;7.32;67.92;101367.22;4195276;28;20051;-73
2022/12/01 01:10:18;;;;;;;23.27;15.68;;;;;;;7.33;67.81;101367.28;4182390;28;20037;-73
2022/12/01 01:12:21;;;;;;;24.35;16.67;;;;;;;7.31;68.14;101363.72;4192972;28;20041;-73
2022/12/01 01:14:24;;;;;;;23.02;14.82;;;;;;;7.27;67.84;101373.88;4194249;28;20032;-73
2022/12/01 01:16:27;;;;;;;22.42;15.27;;;;;;;7.29;67.60;101375.72;4183430;28;20037;-74
2022/12/01 01:18:30;;;;;;;24.10;15.13;;;;;;;7.26;67.63;101369.53;4194481;28;20555;-73
2022/12/01 01:20:34;;;;;;;21.45;14.65;;;;;;;7.26;68.22;101378.19;4196123;28;20059;-73
2022/12/01 01:22:37;;;;;;;22.77;15.05;;;;;;;7.28;68.28;101378.25;4189485;28;20048;-73
2022/12/01 01:24:40;;;;;;;20.45;13.35;;;;;;;7.27;68.35;101379.06;4188914;28;20128;-74
2022/12/01 01:26:43;;;;;;;23.50;14.07;;;;;;;7.32;68.10;101385.31;4196552;28;20044;-73
2022/12/01 01:28:46;;;;;;;23.95;16.20;;;;;;;7.36;68.32;101381.13;4194371;28;20048;-73
2022/12/01 01:30:49;;;;;;;23.50;15.70;;;;;;;7.40;67.23;101385.63;4181269;28;20052;-73
2022/12/01 01:32:52;;;;;;;23.48;14.60;;;;;;;7.30;67.42;101387.84;4179660;28;20044;-74
2022/12/01 01:34:55;;;;;;;23.67;16.88;;;;;;;7.24;67.44;101386.69;4192896;28;20044;-74
2022/12/01 01:36:59;;;;;;;24.88;14.55;;;;;;;7.21;66.80;101389.13;4183238;28;20036;-74
2022/12/01 01:39:02;;;;;;;24.05;16.33;;;;;;;7.22;67.12;101393.50;4195577;28;20087;-74
2022/12/01 01:41:06;;;;;;;24.92;15.90;;;;;;;7.26;65.87;101385.94;4196038;28;20157;-74
2022/12/01 01:43:14;;;;;;;22.20;15.32;;;;;;;7.32;66.13;101393.94;4178040;28;20041;-74
2022/12/01 01:45:22;;;;;;;22.67;14.82;;;;;;;7.22;65.57;101389.19;4186612;28;20407;-74
2022/12/01 01:47:28;;;;;;;24.17;16.17;;;;;;;7.20;65.89;101390.84;4190859;28;20041;-74
2022/12/01 01:49:31;;;;;;;24.73;16.05;;;;;;;7.17;66.46;101388.13;4198293;28;20040;-74
2022/12/01 01:51:38;;;;;;;24.05;15.00;;;;;;;7.16;66.12;101383.78;4197197;28;20435;-74
2022/12/01 01:53:45;;;;;;;24.83;16.10;;;;;;;7.12;66.76;101394.81;4193673;28;20504;-73
2022/12/01 01:55:48;;;;;;;26.27;16.50;;;;;;;7.15;67.01;101394.94;4196826;28;20098;-74
2022/12/01 01:57:51;;;;;;;31.40;21.00;;;;;;;7.16;66.89;101394.13;4197440;28;20044;-74
2022/12/01 01:59:58;;;;;;;51.00;30.48;;;;;;;7.17;67.25;101398.47;4198752;28;20044;-74
2022/12/01 02:02:05;;;;;;;36.50;23.35;;;;;;;7.18;67.64;101392.47;4199076;28;20036;-74
2022/12/01 02:04:09;;;;;;;28.58;17.42;;;;;;;7.17;67.49;101390.72;4193382;28;20033;-74
2022/12/01 02:06:12;;;;;;;68.65;44.90;;;;;;;7.01;67.00;101393.44;4189039;28;20476;-73
2022/12/01 02:08:15;;;;;;;30.73;19.95;;;;;;;6.92;66.84;101394.81;4197507;28;20041;-74
2022/12/01 02:10:22;;;;;;;25.83;17.48;;;;;;;6.90;67.18;101388.69;4195778;28;20099;-74
2022/12/01 02:12:49;;;;;;;27.70;18.25;;;;;;;6.89;66.84;101394.69;4188256;28;20066;-74
2022/12/01 02:15:06;;;;;;;25.55;15.77;;;;;;;6.89;66.77;101405.03;4194487;28;20045;-73
2022/12/01 02:17:21;;;;;;;26.77;17.58;;;;;;;6.94;66.85;101393.19;4197960;28;20052;-73
2022/12/01 02:19:51;;;;;;;26.02;16.65;;;;;;;6.92;66.92;101397.41;4199560;28;20045;-73
2022/12/01 02:22:03;;;;;;;28.40;16.63;;;;;;;6.84;67.50;101392.72;4191049;28;20044;-73
2022/12/01 02:24:48;;;;;;;25.80;16.75;;;;;;;6.87;67.62;101395.44;4181417;28;20043;-73
2022/12/01 02:26:56;;;;;;;25.40;16.65;;;;;;;6.78;67.34;101390.75;4193756;28;20118;-73
2022/12/01 02:29:24;;;;;;;27.15;17.45;;;;;;;6.92;67.08;101389.66;4192364;28;20040;-73
2022/12/01 02:31:39;;;;;;;27.40;17.63;;;;;;;6.81;66.79;101390.88;4195648;28;20445;-73
2022/12/01 02:33:53;;;;;;;26.65;18.50;;;;;;;6.74;67.45;101389.69;4197454;28;20045;-73
2022/12/01 02:36:03;;;;;;;27.90;18.65;;;;;;;6.79;67.29;101392.47;4195763;28;20094;-73
2022/12/01 02:38:13;;;;;;;24.83;16.63;;;;;;;6.75;67.79;101391.47;4197044;28;20059;-73
2022/12/01 02:40:24;;;;;;;29.48;18.55;;;;;;;6.69;66.96;101395.47;4198233;28;20048;-74
2022/12/01 02:42:52;;;;;;;26.70;18.13;;;;;;;6.76;67.32;101379.44;4197408;28;20773;-74
2022/12/01 02:44:57;;;;;;;29.60;18.45;;;;;;;6.72;67.84;101381.00;4192684;28;20032;-75
2022/12/01 02:47:09;;;;;;;27.58;18.73;;;;;;;6.74;67.73;101392.28;4183105;28;20529;-75
2022/12/01 02:49:16;;;;;;;27.90;17.10;;;;;;;6.72;67.50;101387.88;4199004;28;20444;-75
2022/12/01 02:51:23;;;;;;;28.77;18.10;;;;;;;6.72;67.31;101380.13;4187991;28;20044;-74
2022/12/01 02:53:26;;;;;;;29.35;18.33;;;;;;;6.74;67.54;101388.81;4182671;28;20044;-75
2022/12/01 02:55:29;;;;;;;27.85;18.55;;;;;;;6.77;67.85;101388.97;4193294;28;20044;-74
2022/12/01 02:57:32;;;;;;;34.22;19.92;;;;;;;6.81;67.73;101386.56;4194347;28;20379;-74
2022/12/01 02:59:55;;;;;;;30.77;19.08;;;;;;;6.81;67.71;101390.88;4184253;28;20063;-74
2022/12/01 03:02:10;;;;;;;28.05;19.20;;;;;;;6.82;67.29;101383.19;4197263;28;20140;-74
2022/12/01 03:04:23;;;;;;;;;;;;;;;6.73;67.78;101385.38;4191943;28;20090;-74
2022/12/01 03:06:37;;;;;;;25.80;16.73;;;;;;;6.75;68.11;101382.84;4193148;28;20371;-74
2022/12/01 03:08:48;;;;;;;26.77;17.95;;;;;;;6.81;68.15;101388.28;4196762;28;20037;-74
2022/12/01 03:10:54;;;;;;;28.52;16.77;;;;;;;6.75;67.98;101382.84;4183309;28;20545;-74
2022/12/01 03:13:16;;;;;;;30.83;19.65;;;;;;;6.73;67.92;101379.31;4197076;28;20491;-74
2022/12/01 03:15:30;;;;;;;34.08;19.67;;;;;;;6.79;68.06;101382.16;4197557;28;20037;-75
2022/12/01 03:17:39;;;;;;;26.52;17.73;;;;;;;6.82;67.89;101382.31;4198487;28;20119;-73
2022/12/01 03:19:45;;;;;;;24.65;16.58;;;;;;;6.78;67.94;101375.22;4197135;28;20054;-73
2022/12/01 03:21:54;;;;;;;30.00;18.77;;;;;;;6.75;68.09;101372.53;4195660;28;20107;-73
2022/12/01 03:24:02;;;;;;;29.75;18.50;;;;;;;6.79;68.89;101382.16;4194286;28;20086;-73
2022/12/01 03:26:08;;;;;;;28.30;18.42;;;;;;;6.81;68.92;101381.41;4197013;28;20036;-73
2022/12/01 03:28:13;;;;;;;30.50;19.27;;;;;;;6.82;68.06;101382.31;4198313;28;20040;-73
2022/12/01 03:30:24;;;;;;;29.85;17.17;;;;;;;6.83;68.55;101378.88;4197990;28;20119;-73
2022/12/01 03:32:31;;;;;;;30.75;21.55;;;;;;;6.83;69.05;101386.63;4198163;28;20040;-73
2022/12/01 03:34:42;;;;;;;30.98;19.02;;;;;;;7.02;67.61;101379.72;4193310;28;20037;-72
2022/12/01 03:36:49;;;;;;;25.38;16.67;;;;;;;7.19;64.76;101383.03;4187784;28;20114;-73
2022/12/01 03:38:58;;;;;;;24.23;15.88;;;;;;;7.16;63.52;101378.59;4181583;28;20048;-73
2022/12/01 03:41:05;;;;;;;23.77;15.77;;;;;;;7.04;63.14;101380.63;4193550;28;20064;-73
2022/12/01 03:43:10;;;;;;;22.38;15.13;;;;;;;6.91;63.98;101387.00;4193256;28;20041;-73
2022/12/01 03:45:18;;;;;;;24.02;15.40;;;;;;;6.75;64.50;101385.44;4189243;28;20036;-73
2022/12/01 03:47:24;;;;;;;21.42;14.35;;;;;;;6.92;63.94;101389.66;4186088;28;20045;-73
2022/12/01 03:49:27;;;;;;;20.70;14.18;;;;;;;6.90;62.45;101382.63;4184244;28;20036;-73
2022/12/01 03:51:44;;;;;;;18.40;12.18;;;;;;;6.68;63.73;101389.44;4197573;28;20043;-73
2022/12/01 03:53:52;;;;;;;20.85;13.85;;;;;;;6.82;62.98;101392.66;4193760;28;20043;-73
2022/12/01 03:56:01;;;;;;;19.13;13.20;;;;;;;6.87;61.55;101390.25;4190265;28;20059;-73
2022/12/01 03:58:09;;;;;;;23.48;14.07;;;;;;;6.60;63.03;101389.09;4196880;28;20033;-73
2022/12/01 04:00:15;;;;;;;19.35;12.65;;;;;;;6.56;63.17;101384.59;4193971;28;20048;-73
2022/12/01 04:02:18;;;;;;;20.25;13.32;;;;;;;6.64;62.19;101387.53;4181244;28;20095;-73
2022/12/01 04:04:21;;;;;;;22.98;15.02;;;;;;;6.66;62.56;101387.59;4185579;28;20037;-72
2022/12/01 04:06:24;;;;;;;20.60;13.75;;;;;;;6.70;62.22;101392.09;4194068;28;20040;-74
2022/12/01 04:08:29;;;;;;;23.42;14.43;;;;;;;6.64;62.30;101398.75;4197356;28;20448;-74
2022/12/01 04:10:32;;;;;;;21.23;14.25;;;;;;;6.67;61.49;101399.69;4187488;28;20037;-74
2022/12/01 04:12:34;;;;;;;25.42;14.63;;;;;;;6.70;61.13;101402.41;4187811;28;20504;-73
2022/12/01 04:14:37;;;;;;;21.55;13.98;;;;;;;6.44;61.99;101396.97;4191488;28;20052;-73
2022/12/01 04:16:40;;;;;;;21.02;14.10;;;;;;;6.43;62.71;101398.66;4184473;28;20037;-73
2022/12/01 04:18:42;;;;;;;22.10;12.60;;;;;;;6.45;62.93;101399.63;4179671;28;20075;-74
2022/12/01 04:20:46;;;;;;;21.30;13.35;;;;;;;6.67;61.83;101402.28;4182862;28;20036;-73
2022/12/01 04:22:49;;;;;;;22.88;14.65;;;;;;;6.53;61.68;101409.44;4189551;28;20047;-73
2022/12/01 04:24:53;;;;;;;23.23;14.70;;;;;;;6.43;61.85;101403.81;4189534;28;20505;-73
2022/12/01 04:26:56;;;;;;;20.70;14.15;;;;;;;6.45;62.38;101403.88;4179601;28;20037;-74
2022/12/01 04:28:59;;;;;;;19.25;13.07;;;;;;;6.48;63.25;101406.59;4181118;28;20036;-73
2022/12/01 04:31:02;;;;;;;23.63;15.15;;;;;;;6.61;62.59;101402.88;4180759;28;20095;-74
2022/12/01 04:33:05;;;;;;;21.85;13.90;;;;;;;6.57;62.44;101409.63;4191893;28;20044;-74
2022/12/01 04:35:09;;;;;;;21.25;13.82;;;;;;;6.54;62.34;101406.00;4196187;28;20040;-75
2022/12/01 04:37:12;;;;;;;19.98;12.85;;;;;;;6.52;62.62;101407.66;4191164;28;20123;-74
2022/12/01 04:39:15;;;;;;;19.90;13.98;;;;;;;6.57;62.96;101409.63;4194866;28;20044;-73
2022/12/01 04:41:19;;;;;;;22.83;14.95;;;;;;;6.57;61.89;101404.47;4181156;28;20102;-73
2022/12/01 04:43:22;;;;;;;20.13;13.60;;;;;;;6.58;61.00;101403.63;4191525;28;20039;-73
2022/12/01 04:45:25;;;;;;;18.70;12.30;;;;;;;6.36;61.79;101411.22;4193647;28;20047;-74
2022/12/01 04:47:28;;;;;;;21.05;13.65;;;;;;;6.28;62.25;101409.16;4196227;28;20040;-76
2022/12/01 04:49:33;;;;;;;19.75;13.70;;;;;;;6.26;62.37;101404.72;4193293;28;20089;-76
2022/12/01 04:51:36;;;;;;;22.20;14.73;;;;;;;6.34;62.44;101408.56;4188118;28;20067;-76
2022/12/01 04:53:39;;;;;;;24.67;15.07;;;;;;;6.39;62.25;101401.03;4192089;28;20043;-77
2022/12/01 04:55:42;;;;;;;24.48;15.82;;;;;;;6.56;60.58;101413.03;4182891;28;20597;-77
2022/12/01 04:57:46;;;;;;;22.30;14.45;;;;;;;6.45;60.45;101406.47;4195834;28;20036;-77
2022/12/01 04:59:49;;;;;;;26.50;15.63;;;;;;;6.42;60.31;101411.50;4197177;28;20040;-76
2022/12/01 05:01:52;;;;;;;20.80;14.38;;;;;;;6.21;61.50;101406.22;4197067;28;20494;-77
2022/12/01 05:03:55;;;;;;;25.33;14.95;;;;;;;6.20;61.54;101413.06;4192525;28;20413;-77
2022/12/01 05:06:02;;;;;;;21.60;13.60;;;;;;;6.12;61.98;101417.00;4190113;28;20048;-76
2022/12/01 05:08:05;;;;;;;24.83;16.90;;;;;;;6.11;62.34;101416.09;4191157;28;20106;-76
2022/12/01 05:10:08;;;;;;;25.58;15.13;;;;;;;6.35;61.37;101412.03;4182852;28;20095;-75
2022/12/01 05:12:11;;;;;;;22.63;15.30;;;;;;;6.28;61.44;101416.91;4184814;28;20049;-76
2022/12/01 05:14:15;;;;;;;23.10;15.38;;;;;;;6.12;61.71;101417.00;4187646;28;20048;-77
2022/12/01 05:16:21;;;;;;;22.35;13.48;;;;;;;6.06;62.04;101414.09;4191947;28;21484;-77
2022/12/01 05:18:23;;;;;;;22.67;13.60;;;;;;;6.06;62.79;101416.69;4195258;28;20040;-77
2022/12/01 05:22:47;;;;;;;22.98;13.88;;;;;;;6.16;62.24;101413.72;4189980;28;20049;-77
2022/12/01 05:25:08;;;;;;;25.95;14.60;;;;;;;6.32;69.38;101420.50;4192847;28;20048;-74
2022/12/01 05:27:11;;;;;;;21.42;13.52;;;;;;;6.53;69.83;101415.47;4197884;28;20033;-73
2022/12/01 05:29:15;;;;;;;26.65;14.35;;;;;;;6.66;66.50;101416.00;4192308;28;20045;-74
2022/12/01 05:31:18;;;;;;;20.67;14.00;;;;;;;6.55;64.65;101416.41;4196775;28;20040;-70
2022/12/01 05:33:23;;;;;;;21.90;14.63;;;;;;;6.48;64.02;101416.94;4195362;28;20045;-71
2022/12/01 05:35:25;;;;;;;23.15;13.77;;;;;;;6.32;63.53;101419.63;4190617;28;20040;-72
2022/12/01 05:37:32;;;;;;;19.23;12.27;;;;;;;6.42;61.84;101420.13;4198063;28;20040;-72
2022/12/01 05:39:34;;;;;;;21.08;12.57;;;;;;;6.23;62.08;101417.50;4191831;28;20044;-71
2022/12/01 05:41:37;;;;;;;19.25;12.68;;;;;;;6.18;62.99;101422.44;4199240;28;20086;-71
2022/12/01 05:43:40;;;;;;;19.05;12.88;;;;;;;6.26;62.61;101415.97;4196091;28;20150;-71
2022/12/01 05:45:44;;;;;;;22.15;14.23;;;;;;;6.21;62.35;101414.84;4192054;28;20040;-73
2022/12/01 05:47:47;;;;;;;19.27;12.30;;;;;;;6.10;63.00;101419.50;4193039;28;20185;-73
2022/12/01 05:49:50;;;;;;;23.92;12.82;;;;;;;6.06;62.49;101417.59;4192874;28;20406;-73
2022/12/01 05:51:53;;;;;;;19.63;12.10;;;;;;;6.02;62.82;101423.41;4199333;28;20043;-73
2022/12/01 05:53:56;;;;;;;22.00;13.15;;;;;;;6.07;62.88;101421.03;4196196;28;20049;-71
2022/12/01 05:55:58;;;;;;;18.95;13.07;;;;;;;6.08;62.95;101417.66;4198838;28;20054;-74
2022/12/01 05:58:02;;;;;;;21.98;14.32;;;;;;;6.12;62.95;101419.56;4197193;28;20025;-72
2022/12/01 06:00:06;;;;;;;19.33;13.30;;;;;;;6.19;61.90;101429.38;4197284;28;20037;-71
2022/12/01 06:02:16;;;;;;;20.50;14.93;;;;;;;6.20;61.55;101431.13;4197301;28;20064;-72
2022/12/01 06:04:19;;;;;;;20.33;14.13;;;;;;;6.17;61.51;101428.41;4177763;28;20045;-74
2022/12/01 06:06:22;;;;;;;22.20;14.32;;;;;;;6.22;61.41;101436.38;4188374;28;20593;-74
2022/12/01 06:08:25;;;;;;;22.67;15.05;;;;;;;6.27;61.12;101440.94;4196292;28;20036;-73
2022/12/01 06:10:28;;;;;;;19.77;13.52;;;;;;;6.15;60.52;101435.22;4191776;28;20090;-72
2022/12/01 06:12:31;;;;;;;24.90;14.40;;;;;;;5.94;61.94;101437.59;4190965;28;20082;-74
2022/12/01 06:14:34;;;;;;;21.30;13.85;;;;;;;6.09;60.63;101434.94;4193162;28;20162;-70
2022/12/01 06:16:37;;;;;;;25.55;15.50;;;;;;;5.94;61.35;101435.00;4189886;28;20037;-69
2022/12/01 06:18:41;;;;;;;27.13;16.58;;;;;;;5.86;61.88;101439.81;4196823;28;20048;-72
2022/12/01 06:20:44;;;;;;;20.67;13.77;;;;;;;5.81;62.20;101440.38;4187602;28;20036;-72
2022/12/01 06:22:48;;;;;;;23.42;15.15;;;;;;;5.92;62.58;101445.25;4187129;28;20040;-72
2022/12/01 06:24:51;;;;;;;23.33;13.55;;;;;;;5.82;62.66;101437.88;4191639;28;20047;-72
2022/12/01 06:26:54;;;;;;;26.45;15.68;;;;;;;6.04;60.78;101446.72;4195990;28;20037;-72
2022/12/01 06:28:57;;;;;;;22.17;14.55;;;;;;;6.07;60.17;101442.56;4196755;28;20409;-72
2022/12/01 06:31:00;;;;;;;26.15;15.10;;;;;;;6.08;60.11;101439.19;4192160;28;20098;-72
2022/12/01 06:33:05;;;;;;;24.05;14.88;;;;;;;5.88;60.47;101442.47;4198043;28;20051;-72
2022/12/01 06:35:10;;;;;;;25.67;15.85;;;;;;;5.75;61.31;101440.97;4193174;28;20041;-72
2022/12/01 06:37:14;;;;;;;24.50;15.52;;;;;;;5.81;61.56;101445.53;4196435;28;20555;-72
2022/12/01 06:39:17;;;;;;;24.23;14.60;;;;;;;5.88;61.16;101443.34;4196446;28;20544;-71
2022/12/01 06:41:20;;;;;;;23.10;15.40;;;;;;;5.85;60.82;101435.44;4195250;28;20036;-72
2022/12/01 06:43:23;;;;;;;21.95;15.18;;;;;;;5.80;61.12;101447.25;4184189;28;20045;-72
2022/12/01 06:45:26;;;;;;;22.10;14.35;;;;;;;5.90;60.84;101441.72;4197496;28;20071;-71
2022/12/01 06:47:28;;;;;;;21.05;14.20;;;;;;;5.82;61.06;101437.88;4197286;28;20033;-71
2022/12/01 06:49:31;;;;;;;20.40;12.68;;;;;;;5.66;61.58;101443.97;4197879;28;20114;-72
2022/12/01 06:51:35;;;;;;;19.85;13.20;;;;;;;5.86;60.92;101444.97;4198198;28;20048;-71
2022/12/01 06:53:38;;;;;;;20.88;13.68;;;;;;;5.82;60.93;101448.19;4196712;28;20044;-71
2022/12/01 06:55:41;;;;;;;21.05;13.30;;;;;;;5.87;60.65;101441.59;4197706;28;20196;-72
2022/12/01 06:57:44;;;;;;;19.55;13.25;;;;;;;5.70;60.73;101447.59;4190269;28;20063;-72
2022/12/01 06:59:47;;;;;;;19.45;12.32;;;;;;;5.69;61.21;101454.44;4197207;28;20048;-72
2022/12/01 07:01:51;;;;;;;18.58;12.60;;;;;;;5.92;59.60;101454.72;4198748;28;20036;-71
2022/12/01 07:03:54;;;;;;;21.30;12.77;;;;;;;5.86;60.27;101457.88;4197870;28;20498;-71
2022/12/01 07:05:59;;;;;;;21.88;14.18;;;;;;;5.64;60.75;101457.63;4198584;28;20429;-71
2022/12/01 07:08:05;;;;;;;20.55;13.63;;;;;;;5.50;61.84;101450.03;4192144;28;20050;-72
2022/12/01 07:10:10;;;;;;;22.60;14.45;;;;;;;5.68;61.21;101455.28;4197271;28;20399;-72
2022/12/01 07:12:13;;;;;;;;;;;;;;;5.70;60.35;101458.81;4198991;28;20452;-71
2022/12/01 07:14:20;;;;;;;21.58;12.40;;;;;;;5.58;61.15;101459.06;4197758;28;19920;-71
2022/12/01 07:16:22;;;;;;;22.20;14.27;;;;;;;5.74;60.69;101460.72;4193617;28;20041;-71
2022/12/01 07:18:25;;;;;;;21.73;13.15;;;;;;;5.69;60.96;101466.47;4193875;28;20036;-71
2022/12/01 07:20:28;;;;;;;23.95;14.00;;;;;;;5.66;60.83;101463.72;4197023;28;20051;-72
2022/12/01 07:22:31;;;;;;;20.08;12.90;;;;;;;5.56;61.39;101460.69;4198327;28;20551;-72
2022/12/01 07:24:36;;;;;;;22.33;13.10;;;;;;;5.83;61.10;101469.75;4195115;28;20040;-72
2022/12/01 07:26:39;;;;;;;19.95;13.65;;;;;;;5.91;59.84;101469.31;4196751;28;20097;-71
2022/12/01 07:28:43;;;;;;;20.70;14.05;;;;;;;5.80;60.33;101470.47;4198276;28;20313;-71
2022/12/01 07:30:46;;;;;;;23.35;15.00;;;;;;;5.91;59.75;101474.47;4198139;28;20040;-71
2022/12/01 07:32:49;;;;;;;24.58;15.27;;;;;;;5.71;60.31;101465.75;4198149;28;20048;-71
2022/12/01 07:34:52;;;;;;;19.48;13.18;;;;;;;5.79;59.61;101468.69;4193218;28;20094;-71
2022/12/01 07:36:55;;;;;;;20.83;13.80;;;;;;;5.82;59.62;101481.75;4196579;28;20079;-71
2022/12/01 07:38:57;;;;;;;22.60;14.07;;;;;;;5.82;59.72;101479.16;4196591;28;20041;-71
2022/12/01 07:41:07;;;;;;;20.95;13.05;;;;;;;5.90;58.64;101477.88;4197882;28;20059;-71
2022/12/01 07:43:09;;;;;;;19.98;12.93;;;;;;;5.78;58.67;101487.56;4196438;28;20044;-71
2022/12/01 07:45:12;;;;;;;18.17;12.32;;;;;;;5.68;59.04;101482.75;4196209;28;20073;-71
2022/12/01 07:47:15;;;;;;;20.08;11.75;;;;;;;5.63;59.78;101492.84;4197977;28;20049;-71
2022/12/01 07:49:18;;;;;;;19.70;11.85;;;;;;;5.67;59.27;101483.56;4187442;28;20406;-72
2022/12/01 07:51:23;;;;;;;18.35;12.18;;;;;;;5.78;59.06;101487.56;4197764;28;20098;-71
2022/12/01 07:53:25;;;;;;;17.20;11.50;;;;;;;5.76;58.83;101484.91;4197324;28;20368;-70
2022/12/01 07:55:28;;;;;;;17.65;11.00;;;;;;;5.74;59.23;101485.66;4197762;28;20040;-71
2022/12/01 07:57:32;;;;;;;14.65;8.32;;;;;;;5.97;57.21;101480.75;4198325;28;20044;-70
2022/12/01 07:59:35;;;;;;;17.65;10.38;;;;;;;5.92;57.37;101480.53;4196906;28;20486;-72
2022/12/01 08:01:38;;;;;;;15.80;10.52;;;;;;;5.84;57.59;101484.41;4199258;28;20055;-72
2022/12/01 08:03:47;;;;;;;16.30;10.80;;;;;;;5.86;57.81;101488.84;4197195;28;20289;-71
2022/12/01 08:05:56;;;;;;;19.88;12.00;;;;;;;5.80;58.29;101491.13;4197565;28;20041;-71
2022/12/01 08:07:59;;;;;;;16.20;10.90;;;;;;;5.80;58.57;101485.97;4197593;28;20036;-71
2022/12/01 08:10:02;;;;;;;20.98;13.63;;;;;;;5.81;59.08;101492.00;4192723;28;20044;-71
2022/12/01 08:12:06;;;;;;;21.05;13.10;;;;;;;5.89;58.95;101488.97;4197474;28;20437;-71
2022/12/01 08:14:10;;;;;;;20.10;12.27;;;;;;;5.82;59.20;101489.47;4196816;28;20037;-72
2022/12/01 08:16:15;;;;;;;21.58;14.20;;;;;;;5.92;59.48;101486.56;4197506;28;20094;-71
2022/12/01 08:18:18;;;;;;;18.70;12.52;;;;;;;6.02;58.64;101487.06;4197475;28;20119;-71
2022/12/01 08:20:21;;;;;;;23.70;13.80;;;;;;;6.05;58.49;101488.09;4193295;28;20032;-71
2022/12/01 08:22:25;;;;;;;;;;;;;;;6.00;58.67;101491.25;4196551;28;20072;-71
2022/12/01 08:24:28;;;;;;;20.83;13.52;;;;;;;5.91;59.12;101487.38;4196722;28;19920;-72
2022/12/01 08:26:31;;;;;;;24.00;13.77;;;;;;;6.03;59.18;101479.41;4197453;28;20044;-72
2022/12/01 08:28:36;;;;;;;19.55;12.05;;;;;;;6.07;59.03;101490.75;4195367;28;20094;-72
2022/12/01 08:30:40;;;;;;;21.17;13.10;;;;;;;6.14;58.61;101486.78;4195990;28;20044;-71
2022/12/01 08:32:43;;;;;;;24.35;11.80;;;;;;;6.11;58.18;101488.38;4197365;28;20037;-72
2022/12/01 08:34:46;;;;;;;17.58;11.48;;;;;;;6.08;57.67;101487.34;4196557;28;20041;-71
2022/12/01 08:36:55;;;;;;;19.48;10.90;;;;;;;6.04;57.83;101490.59;4177938;28;20049;-71
2022/12/01 08:38:57;;;;;;;19.05;12.48;;;;;;;6.01;58.47;101487.88;4197082;28;20098;-72
2022/12/01 08:41:01;;;;;;;17.80;11.77;;;;;;;5.99;58.37;101492.94;4194859;28;20042;-72
2022/12/01 08:43:05;;;;;;;17.65;11.45;;;;;;;6.09;57.40;101483.97;4197119;28;20051;-72
2022/12/01 08:45:09;;;;;;;18.30;12.23;;;;;;;6.08;57.92;101493.41;4196711;28;20123;-71
2022/12/01 08:47:13;;;;;;;18.48;12.40;;;;;;;6.11;57.42;101482.34;4193345;28;20040;-72
2022/12/01 08:49:21;;;;;;;18.75;11.45;;;;;;;6.14;57.63;101482.47;4186048;28;20040;-72
2022/12/01 08:51:25;;;;;;;19.95;11.10;;;;;;;6.21;57.04;101492.31;4190200;28;20090;-72
2022/12/01 08:53:28;;;;;;;18.35;11.15;;;;;;;5.99;57.83;101487.78;4186544;28;20630;-71
2022/12/01 08:55:31;;;;;;;20.38;11.55;;;;;;;5.99;57.49;101498.13;4194430;28;20039;-72
2022/12/01 08:57:33;;;;;;;19.80;12.52;;;;;;;6.03;58.02;101491.38;4196473;28;20054;-71
2022/12/01 08:59:36;;;;;;;18.52;12.00;;;;;;;6.14;57.25;101494.53;4197121;28;20558;-71
2022/12/01 09:01:50;;;;;;;20.20;12.52;;;;;;;6.02;57.92;101502.56;4197036;28;20037;-71
2022/12/01 09:04:04;;;;;;;21.50;12.65;;;;;;;5.87;58.93;101508.69;4190196;28;20132;-71
2022/12/01 09:06:10;;;;;;;20.40;14.20;;;;;;;5.98;59.03;101510.94;4196952;28;20068;-71
2022/12/01 09:08:31;;;;;;;22.40;13.90;;;;;;;5.97;59.43;101511.72;4197047;28;20291;-72
2022/12/01 09:10:34;;;;;;;23.23;14.98;;;;;;;5.98;59.70;101511.81;4197080;28;20043;-71
2022/12/01 09:12:36;;;;;;;21.45;13.30;;;;;;;6.13;58.72;101510.81;4196978;28;20044;-71
2022/12/01 09:14:41;;;;;;;26.17;15.88;;;;;;;5.91;59.50;101515.78;4190201;28;20487;-71
2022/12/01 09:16:46;;;;;;;20.25;14.45;;;;;;;5.90;59.52;101508.84;4196749;28;20033;-72
2022/12/01 09:18:48;;;;;;;;;;;;;;;5.89;59.72;101507.06;4197408;28;20036;-71
2022/12/01 09:20:53;;;;;;;18.23;12.07;;;;;;;5.81;59.79;101502.31;4196958;28;19921;-72
2022/12/01 09:22:56;;;;;;;21.42;13.30;;;;;;;5.95;59.56;101502.19;4195631;28;20484;-71
2022/12/01 09:24:59;;;;;;;21.08;13.30;;;;;;;5.94;59.88;101503.03;4190893;28;20040;-72
2022/12/01 09:27:02;;;;;;;21.63;13.30;;;;;;;5.93;59.86;101502.94;4196802;28;20098;-72
2022/12/01 09:29:07;;;;;;;22.75;14.05;;;;;;;6.07;59.49;101501.06;4196665;28;20036;-72
2022/12/01 09:31:11;;;;;;;20.23;14.18;;;;;;;6.01;60.05;101511.09;4195443;28;20537;-72
2022/12/01 09:33:15;;;;;;;21.13;13.25;;;;;;;6.10;59.65;101503.78;4193874;28;20445;-72
2022/12/01 09:35:19;;;;;;;21.48;13.60;;;;;;;6.10;59.41;101511.53;4196694;28;20071;-71
2022/12/01 09:37:26;;;;;;;20.23;13.05;;;;;;;6.15;59.07;101504.91;4196807;28;20571;-72
2022/12/01 09:39:29;;;;;;;19.05;12.57;;;;;;;6.11;58.99;101513.31;4195496;28;20476;-72